Time;durP1;ratioP1;P1;durP2;ratioP2;P2;SDS_P1;SDS_P2;PMS_P1;PMS_P2;Temp;Humidity;BMP_temperature;BMP_pressure;BME280_temperature;BME280_humidity;BME280_pressure;Samples;Min_cycle;Max_cycle;Signal;HPM_P1;HPM_P2
2022/07/13 00:01:13;;;;;;;3.30;2.30;;;;;;;;;;5046067;28;20524;-75
2022/07/13 00:03:40;;;;;;;2.07;1.87;;;;;;;;;;5050057;28;20515;-76
2022/07/13 00:06:08;;;;;;;2.33;2.23;;;;;;;;;;5046347;28;20449;-75
2022/07/13 00:08:35;;;;;;;2.10;2.00;;;;;;;;;;5051755;28;20514;-76
2022/07/13 00:11:02;;;;;;;3.07;2.17;;;;;;;;;;5052137;28;20994;-77
2022/07/13 00:13:30;;;;;;;1.90;1.80;;;;;;;;;;5051555;28;20484;-76
2022/07/13 00:15:57;;;;;;;2.17;2.03;;;;;;;;;;5052176;28;20496;-76
2022/07/13 00:18:24;;;;;;;2.20;2.10;;;;;;;;;;5052001;28;20445;-76
2022/07/13 00:20:51;;;;;;;2.17;2.00;;;;;;;;;;5051151;28;20441;-77
2022/07/13 00:23:19;;;;;;;3.30;2.20;;;;;;;;;;5052415;28;20458;-76
2022/07/13 00:25:46;;;;;;;2.37;2.20;;;;;;;;;;5039982;28;20451;-76
2022/07/13 00:28:13;;;;;;;6.53;2.10;;;;;;;;;;5047075;28;20503;-76
2022/07/13 00:30:41;;;;;;;3.20;2.47;;;;;;;;;;5051816;28;20464;-76
2022/07/13 00:33:08;;;;;;;2.10;2.00;;;;;;;;;;5051412;28;20567;-76
2022/07/13 00:35:35;;;;;;;2.43;2.33;;;;;;;;;;5051817;28;20453;-75
2022/07/13 00:38:02;;;;;;;2.40;2.30;;;;;;;;;;5052093;28;20441;-75
2022/07/13 00:40:29;;;;;;;2.47;2.00;;;;;;;;;;5051373;28;20472;-75
2022/07/13 00:42:57;;;;;;;2.30;2.10;;;;;;;;;;5051519;28;20457;-76
2022/07/13 00:45:24;;;;;;;2.43;2.23;;;;;;;;;;5052082;28;20593;-75
2022/07/13 00:47:52;;;;;;;2.57;2.37;;;;;;;;;;5051450;28;20476;-76
2022/07/13 00:50:19;;;;;;;2.60;2.33;;;;;;;;;;5051549;28;20445;-76
2022/07/13 00:52:48;;;;;;;3.00;2.13;;;;;;;;;;5051305;28;20485;-77
2022/07/13 00:55:15;;;;;;;2.57;2.37;;;;;;;;;;5051612;28;20472;-76
2022/07/13 00:57:42;;;;;;;2.50;2.30;;;;;;;;;;5051350;28;20450;-75
2022/07/13 01:00:11;;;;;;;3.00;2.30;;;;;;;;;;5051002;28;20445;-76
2022/07/13 01:02:38;;;;;;;4.10;3.07;;;;;;;;;;5050786;28;20469;-75
2022/07/13 01:05:07;;;;;;;4.50;2.33;;;;;;;;;;5050956;28;20438;-76
2022/07/13 01:07:34;;;;;;;2.70;2.50;;;;;;;;;;5050681;28;20441;-76
2022/07/13 01:10:05;;;;;;;2.67;2.53;;;;;;;;;;5051333;28;20495;-77
2022/07/13 01:12:32;;;;;;;2.90;2.50;;;;;;;;;;5050798;28;20493;-76
2022/07/13 01:14:59;;;;;;;2.87;2.27;;;;;;;;;;5050887;28;20525;-76
2022/07/13 01:17:26;;;;;;;2.60;2.40;;;;;;;;;;5050896;28;20446;-75
2022/07/13 01:19:53;;;;;;;1.60;1.60;;;;;;;;;;5051066;28;20495;-76
2022/07/13 01:22:23;;;;;;;3.67;2.40;;;;;;;;;;5050793;28;20464;-76
2022/07/13 01:24:52;;;;;;;2.60;1.90;;;;;;;;;;5050810;28;20445;-75
2022/07/13 01:27:19;;;;;;;2.43;2.23;;;;;;;;;;5051231;28;20449;-76
2022/07/13 01:29:47;;;;;;;2.80;2.60;;;;;;;;;;5050998;28;20449;-76
2022/07/13 01:32:14;;;;;;;2.50;2.40;;;;;;;;;;5053853;28;20489;-76
2022/07/13 01:34:41;;;;;;;2.30;2.10;;;;;;;;;;5054890;28;20437;-75
2022/07/13 01:37:08;;;;;;;2.63;2.43;;;;;;;;;;5055001;28;20499;-76
2022/07/13 01:39:35;;;;;;;2.63;2.43;;;;;;;;;;5054787;28;20507;-76
2022/07/13 01:42:03;;;;;;;2.50;2.30;;;;;;;;;;5054858;28;20465;-76
2022/07/13 01:44:30;;;;;;;2.50;2.30;;;;;;;;;;5054685;28;20441;-76
2022/07/13 01:46:57;;;;;;;3.80;2.40;;;;;;;;;;5055099;28;20446;-76
2022/07/13 01:49:24;;;;;;;2.63;2.43;;;;;;;;;;5055114;28;20445;-75
2022/07/13 01:51:51;;;;;;;3.70;2.07;;;;;;;;;;5054661;28;20554;-76
2022/07/13 01:54:18;;;;;;;2.50;2.30;;;;;;;;;;5054450;28;20442;-76
2022/07/13 01:56:45;;;;;;;2.27;2.00;;;;;;;;;;5054793;28;20841;-75
2022/07/13 01:59:14;;;;;;;2.47;2.10;;;;;;;;;;5054912;28;20441;-74
2022/07/13 02:01:41;;;;;;;2.57;2.37;;;;;;;;;;5054291;28;20503;-76
2022/07/13 02:04:08;;;;;;;2.27;2.17;;;;;;;;;;5054451;28;20457;-76
2022/07/13 02:06:35;;;;;;;3.50;1.80;;;;;;;;;;5054645;28;21172;-75
2022/07/13 02:09:02;;;;;;;2.93;2.30;;;;;;;;;;5054869;28;20475;-76
2022/07/13 02:11:29;;;;;;;6.63;2.70;;;;;;;;;;5055016;28;20445;-76
2022/07/13 02:13:56;;;;;;;2.10;1.80;;;;;;;;;;5055120;28;20489;-76
2022/07/13 02:16:24;;;;;;;2.33;1.90;;;;;;;;;;5055506;28;20499;-76
2022/07/13 02:18:51;;;;;;;1.87;1.77;;;;;;;;;;5056507;28;20446;-76
2022/07/13 02:21:18;;;;;;;2.80;2.60;;;;;;;;;;5056136;28;20446;-75
2022/07/13 02:23:45;;;;;;;2.67;2.47;;;;;;;;;;5054395;28;20464;-76
2022/07/13 02:26:12;;;;;;;2.67;2.23;;;;;;;;;;5060030;28;20446;-75
2022/07/13 02:28:39;;;;;;;4.67;2.20;;;;;;;;;;5060152;28;20437;-76
2022/07/13 02:31:06;;;;;;;2.60;2.50;;;;;;;;;;5059745;28;20945;-75
2022/07/13 02:33:34;;;;;;;2.27;2.03;;;;;;;;;;5059015;28;20481;-76
2022/07/13 02:36:01;;;;;;;4.50;2.43;;;;;;;;;;5058001;28;20450;-75
2022/07/13 02:38:28;;;;;;;1.83;1.70;;;;;;;;;;5054916;28;20446;-77
2022/07/13 02:40:56;;;;;;;2.13;2.03;;;;;;;;;;5054399;28;20488;-75
2022/07/13 02:43:23;;;;;;;2.03;1.93;;;;;;;;;;5052884;28;21031;-75
2022/07/13 02:45:49;;;;;;;4.80;2.60;;;;;;;;;;5054310;28;20491;-75
2022/07/13 02:48:16;;;;;;;2.33;2.20;;;;;;;;;;5053879;28;20453;-76
2022/07/13 02:50:45;;;;;;;2.40;2.20;;;;;;;;;;5054261;28;20445;-75
2022/07/13 02:53:12;;;;;;;2.20;1.93;;;;;;;;;;5053715;28;20481;-76
2022/07/13 02:55:39;;;;;;;2.53;2.33;;;;;;;;;;5053735;28;20506;-76
2022/07/13 02:58:06;;;;;;;2.13;2.03;;;;;;;;;;5053743;28;20449;-76
2022/07/13 03:00:33;;;;;;;2.63;2.30;;;;;;;;;;5053646;28;20676;-75
2022/07/13 03:03:00;;;;;;;2.53;2.33;;;;;;;;;;5053777;28;20469;-76
2022/07/13 03:05:27;;;;;;;2.57;2.37;;;;;;;;;;5053876;28;20553;-74
2022/07/13 03:07:55;;;;;;;3.60;2.70;;;;;;;;;;5053551;28;20476;-75
2022/07/13 03:10:22;;;;;;;2.80;2.30;;;;;;;;;;5053300;28;20475;-76
2022/07/13 03:12:49;;;;;;;2.60;2.40;;;;;;;;;;5053427;28;20488;-76
2022/07/13 03:15:16;;;;;;;2.37;2.13;;;;;;;;;;5053485;28;20866;-75
2022/07/13 03:17:43;;;;;;;3.17;2.97;;;;;;;;;;5053569;28;20441;-75
2022/07/13 03:20:11;;;;;;;2.23;2.13;;;;;;;;;;5053165;28;20534;-75
2022/07/13 03:22:38;;;;;;;2.27;2.10;;;;;;;;;;5053255;28;20450;-75
2022/07/13 03:25:07;;;;;;;3.33;3.10;;;;;;;;;;5053531;28;20859;-75
2022/07/13 03:27:34;;;;;;;2.20;2.10;;;;;;;;;;5053269;28;20449;-76
2022/07/13 03:30:02;;;;;;;4.30;2.17;;;;;;;;;;5053158;28;20499;-76
2022/07/13 03:32:29;;;;;;;2.57;2.37;;;;;;;;;;5053228;28;20485;-76
2022/07/13 03:34:56;;;;;;;2.33;2.10;;;;;;;;;;5053362;28;20452;-76
2022/07/13 03:37:23;;;;;;;4.40;2.37;;;;;;;;;;5053553;28;20524;-76
2022/07/13 03:39:50;;;;;;;2.60;2.40;;;;;;;;;;5052862;28;20949;-77
2022/07/13 03:42:19;;;;;;;2.20;2.10;;;;;;;;;;5053188;28;20462;-75
2022/07/13 03:44:46;;;;;;;2.67;2.47;;;;;;;;;;5052753;28;20442;-75
2022/07/13 03:47:13;;;;;;;3.00;2.50;;;;;;;;;;5052641;28;20441;-76
2022/07/13 03:49:40;;;;;;;2.60;2.40;;;;;;;;;;5052938;28;20471;-75
2022/07/13 03:52:07;;;;;;;2.20;2.10;;;;;;;;;;5052543;28;20860;-75
2022/07/13 03:54:34;;;;;;;3.30;2.47;;;;;;;;;;5051576;28;20480;-75
2022/07/13 03:57:01;;;;;;;2.93;2.57;;;;;;;;;;5052235;28;20868;-76
2022/07/13 03:59:30;;;;;;;2.50;2.30;;;;;;;;;;5052664;28;20441;-76
2022/07/13 04:01:57;;;;;;;2.40;2.30;;;;;;;;;;5052258;28;20457;-76
2022/07/13 04:04:24;;;;;;;2.93;2.73;;;;;;;;;;5052189;28;20839;-75
2022/07/13 04:06:51;;;;;;;3.23;3.03;;;;;;;;;;5052571;28;20454;-75
2022/07/13 04:09:18;;;;;;;4.03;2.83;;;;;;;;;;5052710;28;20472;-75
2022/07/13 04:11:45;;;;;;;2.50;2.40;;;;;;;;;;5052197;28;20449;-75
2022/07/13 04:14:12;;;;;;;2.93;2.73;;;;;;;;;;5052600;28;20488;-76
2022/07/13 04:16:40;;;;;;;2.47;2.27;;;;;;;;;;5052596;28;20437;-75
2022/07/13 04:19:07;;;;;;;3.60;2.70;;;;;;;;;;5052184;28;20457;-75
2022/07/13 04:21:34;;;;;;;3.20;2.90;;;;;;;;;;5052222;28;20514;-76
2022/07/13 04:24:01;;;;;;;4.50;2.47;;;;;;;;;;5052243;28;20442;-75
2022/07/13 04:26:29;;;;;;;3.00;2.80;;;;;;;;;;5052295;28;20939;-75
2022/07/13 04:28:56;;;;;;;4.20;2.40;;;;;;;;;;5052299;28;20445;-77
2022/07/13 04:31:23;;;;;;;2.50;2.30;;;;;;;;;;5052415;28;20449;-76
2022/07/13 04:33:52;;;;;;;2.67;2.47;;;;;;;;;;5053101;28;20547;-74
2022/07/13 04:36:19;;;;;;;3.17;2.03;;;;;;;;;;5060647;28;20445;-76
2022/07/13 04:38:46;;;;;;;2.77;2.53;;;;;;;;;;5064412;28;20457;-75
2022/07/13 04:41:13;;;;;;;4.50;2.60;;;;;;;;;;5063140;28;20965;-79
2022/07/13 04:43:40;;;;;;;5.13;2.37;;;;;;;;;;5060000;28;21062;-75
2022/07/13 04:46:07;;;;;;;4.43;2.50;;;;;;;;;;5052280;28;20444;-75
2022/07/13 04:48:34;;;;;;;3.33;2.50;;;;;;;;;;5051721;28;20987;-75
2022/07/13 04:51:02;;;;;;;2.30;2.20;;;;;;;;;;5047792;28;20472;-75
2022/07/13 04:53:30;;;;;;;2.90;2.60;;;;;;;;;;5050820;28;20931;-77
2022/07/13 04:55:57;;;;;;;3.17;2.87;;;;;;;;;;5047606;28;20453;-75
2022/07/13 04:58:24;;;;;;;3.67;2.23;;;;;;;;;;5051376;28;20441;-77
2022/07/13 05:00:51;;;;;;;2.80;2.60;;;;;;;;;;5051202;28;20831;-76
2022/07/13 05:03:18;;;;;;;2.50;2.30;;;;;;;;;;5051190;28;20469;-76
2022/07/13 05:05:45;;;;;;;2.47;2.33;;;;;;;;;;5051232;28;20856;-75
2022/07/13 05:08:13;;;;;;;2.60;2.43;;;;;;;;;;5051394;28;20449;-76
2022/07/13 05:10:40;;;;;;;3.90;2.70;;;;;;;;;;5051593;28;21006;-75
2022/07/13 05:13:07;;;;;;;2.50;2.40;;;;;;;;;;5050872;28;20477;-74
2022/07/13 05:15:34;;;;;;;2.80;2.60;;;;;;;;;;5051253;28;20464;-75
2022/07/13 05:18:01;;;;;;;3.47;3.17;;;;;;;;;;5051212;28;20446;-75
2022/07/13 05:20:28;;;;;;;2.77;2.20;;;;;;;;;;5051275;28;20437;-76
2022/07/13 05:22:55;;;;;;;2.57;2.37;;;;;;;;;;5051048;28;20466;-75
2022/07/13 05:25:24;;;;;;;3.50;2.10;;;;;;;;;;5052000;28;20445;-75
2022/07/13 05:27:51;;;;;;;3.40;2.60;;;;;;;;;;5051254;28;20441;-77
2022/07/13 05:30:18;;;;;;;3.77;2.53;;;;;;;;;;5051408;28;20467;-75
2022/07/13 05:32:45;;;;;;;6.20;5.70;;;;;;;;;;5051084;28;20552;-75
2022/07/13 05:35:12;;;;;;;6.30;2.97;;;;;;;;;;5051784;28;20568;-76
2022/07/13 05:37:39;;;;;;;2.83;2.20;;;;;;;;;;5051886;28;20448;-78
2022/07/13 05:40:07;;;;;;;2.70;2.53;;;;;;;;;;5051217;28;20999;-76
2022/07/13 05:42:35;;;;;;;2.77;2.57;;;;;;;;;;5051730;28;20466;-76
2022/07/13 05:45:02;;;;;;;3.00;2.27;;;;;;;;;;5051716;28;20472;-75
2022/07/13 05:47:29;;;;;;;2.67;2.47;;;;;;;;;;5051840;28;20449;-76
2022/07/13 05:49:56;;;;;;;3.13;2.93;;;;;;;;;;5051233;28;20442;-77
2022/07/13 05:52:24;;;;;;;3.77;3.10;;;;;;;;;;5050646;28;20508;-76
2022/07/13 05:54:51;;;;;;;3.13;2.30;;;;;;;;;;5051004;28;20477;-76
2022/07/13 05:57:18;;;;;;;2.93;2.77;;;;;;;;;;5051456;28;20446;-76
2022/07/13 05:59:46;;;;;;;6.43;4.17;;;;;;;;;;5051223;28;20512;-77
2022/07/13 06:02:13;;;;;;;2.97;2.73;;;;;;;;;;5050565;28;20519;-77
2022/07/13 06:04:41;;;;;;;2.97;2.77;;;;;;;;;;5050817;28;20425;-76
2022/07/13 06:07:08;;;;;;;4.80;2.90;;;;;;;;;;5050938;28;20495;-77
2022/07/13 06:09:35;;;;;;;3.40;2.77;;;;;;;;;;5050892;28;20822;-76
2022/07/13 06:12:02;;;;;;;9.10;3.80;;;;;;;;;;5051066;28;20518;-77
2022/07/13 06:14:29;;;;;;;5.90;3.67;;;;;;;;;;5050568;28;20473;-76
2022/07/13 06:16:58;;;;;;;4.33;2.70;;;;;;;;;;5050615;28;20446;-76
2022/07/13 06:19:25;;;;;;;3.27;2.97;;;;;;;;;;5053903;28;20586;-77
2022/07/13 06:21:52;;;;;;;5.40;3.27;;;;;;;;;;5053999;28;20499;-75
2022/07/13 06:24:19;;;;;;;7.50;3.20;;;;;;;;;;5054372;28;20441;-76
2022/07/13 06:26:46;;;;;;;5.27;2.80;;;;;;;;;;5054345;28;20445;-77
2022/07/13 06:29:13;;;;;;;5.00;3.20;;;;;;;;;;5054878;28;20444;-77
2022/07/13 06:31:40;;;;;;;3.93;3.03;;;;;;;;;;5054940;28;20499;-78
2022/07/13 06:34:08;;;;;;;3.97;3.17;;;;;;;;;;5054195;28;20623;-75
2022/07/13 06:36:38;;;;;;;3.47;3.17;;;;;;;;;;5054029;28;20519;-76
2022/07/13 06:39:05;;;;;;;3.50;3.20;;;;;;;;;;5045717;28;20551;-76
2022/07/13 06:41:32;;;;;;;3.60;3.10;;;;;;;;;;5049257;28;20442;-76
2022/07/13 06:43:59;;;;;;;3.30;2.73;;;;;;;;;;5036759;28;20874;-77
2022/07/13 06:46:26;;;;;;;6.97;3.30;;;;;;;;;;5033941;28;21078;-76
2022/07/13 06:48:53;;;;;;;3.70;3.27;;;;;;;;;;5034760;28;20500;-75
2022/07/13 06:51:23;;;;;;;5.60;3.83;;;;;;;;;;5035270;28;20457;-77
2022/07/13 06:53:50;;;;;;;6.90;3.37;;;;;;;;;;5042316;28;20497;-77
2022/07/13 06:56:17;;;;;;;6.83;3.40;;;;;;;;;;5046653;28;20449;-76
2022/07/13 06:58:45;;;;;;;3.80;3.13;;;;;;;;;;5051063;28;20437;-77
2022/07/13 07:01:12;;;;;;;6.13;3.37;;;;;;;;;;5054395;28;20544;-76
2022/07/13 07:03:39;;;;;;;5.33;3.40;;;;;;;;;;5053955;28;20461;-75
2022/07/13 07:06:07;;;;;;;7.17;3.30;;;;;;;;;;5054588;28;20438;-75
2022/07/13 07:08:35;;;;;;;4.90;3.50;;;;;;;;;;5054246;28;20448;-78
2022/07/13 07:11:02;;;;;;;4.97;3.53;;;;;;;;;;5054651;28;20436;-77
2022/07/13 07:13:29;;;;;;;3.50;2.80;;;;;;;;;;5054018;28;20457;-75
2022/07/13 07:15:56;;;;;;;3.37;2.73;;;;;;;;;;5054122;28;20468;-75
2022/07/13 07:18:24;;;;;;;5.70;3.20;;;;;;;;;;5043727;28;20845;-76
2022/07/13 07:20:52;;;;;;;4.83;2.67;;;;;;;;;;5053665;28;20450;-75
2022/07/13 07:23:19;;;;;;;6.23;3.23;;;;;;;;;;5033712;28;20462;-75
2022/07/13 07:25:47;;;;;;;5.80;3.40;;;;;;;;;;5046852;28;20870;-75
2022/07/13 07:28:14;;;;;;;3.43;3.03;;;;;;;;;;5052226;28;20475;-76
2022/07/13 07:30:41;;;;;;;4.10;3.00;;;;;;;;;;5052188;28;20847;-78
2022/07/13 07:33:08;;;;;;;3.33;2.60;;;;;;;;;;5052384;28;20515;-76
2022/07/13 07:35:35;;;;;;;2.87;1.93;;;;;;;;;;5052356;28;20825;-76
2022/07/13 07:38:02;;;;;;;4.33;2.37;;;;;;;;;;5052150;28;20446;-75
2022/07/13 07:40:29;;;;;;;4.97;2.43;;;;;;;;;;5052420;28;20772;-76
2022/07/13 07:42:58;;;;;;;4.60;2.33;;;;;;;;;;5051993;28;20450;-77
2022/07/13 07:45:25;;;;;;;2.43;2.17;;;;;;;;;;5052226;28;20441;-75
2022/07/13 07:47:52;;;;;;;2.50;2.17;;;;;;;;;;5053278;28;20448;-76
2022/07/13 07:50:19;;;;;;;3.27;2.17;;;;;;;;;;5046815;28;20454;-76
2022/07/13 07:52:46;;;;;;;2.30;2.00;;;;;;;;;;5031816;28;20508;-74
2022/07/13 07:55:25;;;;;;;3.33;2.60;;;;;;;;;;5032059;28;20544;-77
2022/07/13 07:57:53;;;;;;;1.83;1.73;;;;;;;;;;5032451;28;20946;-77
2022/07/13 08:00:22;;;;;;;2.73;1.80;;;;;;;;;;5033531;28;20810;-77
2022/07/13 08:02:49;;;;;;;2.07;1.87;;;;;;;;;;5032428;28;20526;-77
2022/07/13 08:05:16;;;;;;;2.53;1.93;;;;;;;;;;5033611;28;20497;-77
2022/07/13 08:07:44;;;;;;;3.77;2.07;;;;;;;;;;5031937;28;20450;-77
2022/07/13 08:10:12;;;;;;;1.70;1.60;;;;;;;;;;5048572;28;20442;-77
2022/07/13 08:12:39;;;;;;;4.63;2.60;;;;;;;;;;5052471;28;20539;-78
2022/07/13 08:15:08;;;;;;;6.67;2.40;;;;;;;;;;5053701;28;20504;-79
2022/07/13 08:17:37;;;;;;;2.93;1.90;;;;;;;;;;5052694;28;20524;-77
2022/07/13 08:20:04;;;;;;;3.57;2.40;;;;;;;;;;5050951;28;20635;-78
2022/07/13 08:22:31;;;;;;;5.43;1.90;;;;;;;;;;5050953;28;20816;-77
2022/07/13 08:24:58;;;;;;;9.50;2.43;;;;;;;;;;5050871;28;20452;-77
2022/07/13 08:27:25;;;;;;;2.27;2.07;;;;;;;;;;5050468;28;20928;-77
2022/07/13 08:29:52;;;;;;;4.03;2.47;;;;;;;;;;5050461;28;20532;-77
2022/07/13 08:32:19;;;;;;;2.10;2.00;;;;;;;;;;5050167;28;20543;-77
2022/07/13 08:40:20;;;;;;;4.00;2.00;;;;;;;;;;5050719;28;20417;-77
2022/07/13 08:42:47;;;;;;;3.47;2.20;;;;;;;;;;5053227;28;20931;-77
2022/07/13 08:45:14;;;;;;;7.73;2.70;;;;;;;;;;5052671;28;20454;-78
2022/07/13 08:47:42;;;;;;;2.17;1.70;;;;;;;;;;5055772;28;20446;-77
2022/07/13 08:50:11;;;;;;;5.50;1.90;;;;;;;;;;5048216;28;20516;-77
2022/07/13 08:52:39;;;;;;;2.10;1.70;;;;;;;;;;5039101;28;20462;-77
2022/07/13 08:55:08;;;;;;;4.13;1.70;;;;;;;;;;5043603;28;20510;-76
2022/07/13 08:57:35;;;;;;;2.07;1.80;;;;;;;;;;5043795;28;20492;-76
2022/07/13 09:00:04;;;;;;;5.53;2.10;;;;;;;;;;5037880;28;20501;-77
2022/07/13 09:02:31;;;;;;;2.13;1.70;;;;;;;;;;5035532;28;20481;-77
2022/07/13 09:04:59;;;;;;;5.30;1.53;;;;;;;;;;5037756;28;20438;-77
2022/07/13 09:07:28;;;;;;;6.00;2.00;;;;;;;;;;5030761;28;20472;-77
2022/07/13 09:09:57;;;;;;;1.73;1.63;;;;;;;;;;5043286;28;20507;-79
2022/07/13 09:12:24;;;;;;;3.73;1.50;;;;;;;;;;5050522;28;20523;-78
2022/07/13 09:14:52;;;;;;;2.20;1.73;;;;;;;;;;5049738;28;20481;-77
2022/07/13 09:17:36;;;;;;;5.20;1.20;;;;;;;;;;5051298;28;20476;-77
2022/07/13 09:20:17;;;;;;;1.87;1.60;;;;;;;;;;5052414;28;20456;-77
2022/07/13 09:22:48;;;;;;;1.30;1.20;;;;;;;;;;5050451;28;20663;-77
2022/07/13 09:25:29;;;;;;;0.97;0.90;;;;;;;;;;5052350;28;20434;-77
2022/07/13 09:27:56;;;;;;;2.70;1.03;;;;;;;;;;5060098;28;20451;-79
2022/07/13 09:30:29;;;;;;;0.90;0.90;;;;;;;;;;5059334;28;20476;-78
2022/07/13 09:32:57;;;;;;;1.53;0.90;;;;;;;;;;5055303;28;20465;-76
2022/07/13 09:35:41;;;;;;;1.00;1.00;;;;;;;;;;5045955;28;20477;-76
2022/07/13 09:38:10;;;;;;;1.20;1.10;;;;;;;;;;5032798;28;20442;-77
2022/07/13 09:40:38;;;;;;;0.80;0.80;;;;;;;;;;5032146;28;20552;-76
2022/07/13 09:48:34;;;;;;;1.43;1.13;;;;;;;;;;5030512;28;20426;-77
2022/07/13 09:51:02;;;;;;;1.13;1.13;;;;;;;;;;5030354;28;20500;-76
2022/07/13 09:53:31;;;;;;;1.00;1.00;;;;;;;;;;5031820;28;20462;-77
2022/07/13 09:55:59;;;;;;;1.93;1.30;;;;;;;;;;5033714;28;20486;-77
2022/07/13 09:58:29;;;;;;;2.53;1.30;;;;;;;;;;5033772;28;20450;-77
2022/07/13 10:00:57;;;;;;;3.57;1.17;;;;;;;;;;5033720;28;20546;-76
2022/07/13 10:03:25;;;;;;;2.10;1.33;;;;;;;;;;5034099;28;20478;-77
2022/07/13 10:05:53;;;;;;;1.20;1.20;;;;;;;;;;5033629;28;20450;-77
2022/07/13 10:08:20;;;;;;;4.10;0.97;;;;;;;;;;5033012;28;20442;-76
2022/07/13 10:10:49;;;;;;;6.63;1.10;;;;;;;;;;5033457;28;20857;-77
2022/07/13 10:13:16;;;;;;;3.27;0.83;;;;;;;;;;5032553;28;20453;-77
2022/07/13 10:15:44;;;;;;;5.60;1.40;;;;;;;;;;5033141;28;20473;-77
2022/07/13 10:18:13;;;;;;;2.13;1.20;;;;;;;;;;5033201;28;20446;-77
2022/07/13 10:20:43;;;;;;;1.40;1.30;;;;;;;;;;5033113;28;20446;-76
2022/07/13 10:23:11;;;;;;;1.30;1.20;;;;;;;;;;5033137;28;20470;-77
2022/07/13 10:25:45;;;;;;;1.80;1.00;;;;;;;;;;5033020;28;20961;-76
2022/07/13 10:28:14;;;;;;;0.87;0.87;;;;;;;;;;5034135;28;20940;-78
2022/07/13 10:30:41;;;;;;;2.77;1.20;;;;;;;;;;5033701;28;20938;-77
2022/07/13 10:33:20;;;;;;;1.03;0.90;;;;;;;;;;5033193;28;20493;-77
2022/07/13 10:35:48;;;;;;;1.10;0.80;;;;;;;;;;5033718;28;20478;-76
2022/07/13 10:38:16;;;;;;;1.17;1.07;;;;;;;;;;5034373;28;20459;-78
2022/07/13 10:40:44;;;;;;;0.70;0.60;;;;;;;;;;5033238;28;20454;-78
2022/07/13 10:43:21;;;;;;;0.60;0.60;;;;;;;;;;5032312;28;20998;-77
2022/07/13 10:45:51;;;;;;;1.37;0.83;;;;;;;;;;5032791;28;20861;-76
2022/07/13 10:48:37;;;;;;;0.60;0.60;;;;;;;;;;5033535;28;20782;-77
2022/07/13 10:51:04;;;;;;;1.90;0.90;;;;;;;;;;5033962;28;20446;-77
2022/07/13 10:53:52;;;;;;;0.70;0.70;;;;;;;;;;5033844;28;20478;-77
2022/07/13 10:56:19;;;;;;;3.40;0.80;;;;;;;;;;5033853;28;20617;-76
2022/07/13 10:58:49;;;;;;;0.77;0.60;;;;;;;;;;5034121;28;20604;-77
2022/07/13 11:01:37;;;;;;;4.10;0.93;;;;;;;;;;5034054;28;20453;-77
2022/07/13 11:04:04;;;;;;;1.70;0.70;;;;;;;;;;5031910;28;20533;-78
2022/07/13 11:06:31;;;;;;;0.90;0.90;;;;;;;;;;5032503;28;20573;-77
2022/07/13 11:09:14;;;;;;;0.70;0.70;;;;;;;;;;5037338;28;20438;-77
2022/07/13 11:11:45;;;;;;;1.13;0.87;;;;;;;;;;5052036;28;20441;-77
2022/07/13 11:14:31;;;;;;;1.27;1.00;;;;;;;;;;5051635;28;20532;-76
2022/07/13 11:17:11;;;;;;;1.30;1.20;;;;;;;;;;5051965;28;20452;-76
2022/07/13 11:19:52;;;;;;;0.50;0.50;;;;;;;;;;5052016;28;20499;-76
2022/07/13 11:22:19;;;;;;;0.60;0.60;;;;;;;;;;5051722;28;20894;-78
2022/07/13 11:27:37;;;;;;;0.60;0.60;;;;;;;;;;5051386;28;20988;-77
2022/07/13 11:30:05;;;;;;;1.47;0.60;;;;;;;;;;5051328;28;20464;-76
2022/07/13 11:32:34;;;;;;;3.13;0.70;;;;;;;;;;5051266;28;20595;-78
2022/07/13 11:35:01;;;;;;;1.97;0.60;;;;;;;;;;5051844;28;20473;-78
2022/07/13 11:37:28;;;;;;;2.80;0.70;;;;;;;;;;5052765;28;20445;-75
2022/07/13 11:39:55;;;;;;;0.53;0.53;;;;;;;;;;5052544;28;20505;-78
2022/07/13 11:42:23;;;;;;;0.70;0.70;;;;;;;;;;5052496;28;20556;-77
2022/07/13 11:44:52;;;;;;;0.90;0.77;;;;;;;;;;5065970;28;20449;-77
2022/07/13 11:47:19;;;;;;;0.60;0.60;;;;;;;;;;5070507;28;20437;-77
2022/07/13 11:49:48;;;;;;;0.70;0.70;;;;;;;;;;5070358;28;20662;-75
2022/07/13 11:52:21;;;;;;;1.10;0.57;;;;;;;;;;5055024;28;20464;-77
2022/07/13 11:54:58;;;;;;;0.50;0.50;;;;;;;;;;5056689;28;20445;-76
2022/07/13 11:57:25;;;;;;;0.60;0.60;;;;;;;;;;5060462;28;20495;-77
2022/07/13 11:59:52;;;;;;;1.10;0.97;;;;;;;;;;5060690;28;20485;-76
2022/07/13 12:02:19;;;;;;;0.90;0.70;;;;;;;;;;5060982;28;20461;-78
2022/07/13 12:04:48;;;;;;;0.80;0.80;;;;;;;;;;5052346;28;20445;-76
2022/07/13 12:07:17;;;;;;;2.60;0.63;;;;;;;;;;5052124;28;20454;-77
2022/07/13 12:09:52;;;;;;;0.77;0.70;;;;;;;;;;5051681;28;20444;-77
2022/07/13 12:12:20;;;;;;;0.80;0.80;;;;;;;;;;5051008;28;20462;-77
2022/07/13 12:14:48;;;;;;;0.87;0.57;;;;;;;;;;5050802;28;20457;-76
2022/07/13 12:17:15;;;;;;;1.03;0.70;;;;;;;;;;5050840;28;20652;-78
2022/07/13 12:19:42;;;;;;;0.70;0.70;;;;;;;;;;5051286;28;20437;-77
2022/07/13 12:22:11;;;;;;;1.23;0.80;;;;;;;;;;5051843;28;20469;-77
2022/07/13 12:24:44;;;;;;;1.17;0.77;;;;;;;;;;5052175;28;20441;-77
2022/07/13 12:27:20;;;;;;;4.13;0.77;;;;;;;;;;5051617;28;20441;-76
2022/07/13 12:29:47;;;;;;;0.60;0.60;;;;;;;;;;5052104;28;20453;-78
2022/07/13 12:32:14;;;;;;;1.10;0.70;;;;;;;;;;5051369;28;20531;-76
2022/07/13 12:34:50;;;;;;;1.23;0.53;;;;;;;;;;5050997;28;20460;-78
2022/07/13 12:37:32;;;;;;;1.03;0.60;;;;;;;;;;5051098;28;20591;-76
2022/07/13 12:40:00;;;;;;;0.60;0.50;;;;;;;;;;5051371;28;20665;-76
2022/07/13 12:42:27;;;;;;;1.90;0.70;;;;;;;;;;5050931;28;20484;-76
2022/07/13 12:44:55;;;;;;;1.23;0.70;;;;;;;;;;5050628;28;20942;-76
2022/07/13 12:47:24;;;;;;;0.60;0.60;;;;;;;;;;5050458;28;20464;-76
2022/07/13 12:49:51;;;;;;;0.70;0.60;;;;;;;;;;5050641;28;21059;-77
2022/07/13 12:52:19;;;;;;;0.70;0.50;;;;;;;;;;5050288;28;20469;-76
2022/07/13 12:54:48;;;;;;;1.43;0.70;;;;;;;;;;5049869;28;20943;-78
2022/07/13 12:57:17;;;;;;;0.60;0.60;;;;;;;;;;5049837;28;20487;-76
2022/07/13 13:00:08;;;;;;;0.80;0.80;;;;;;;;;;5050122;28;20441;-77
2022/07/13 13:02:35;;;;;;;1.30;0.70;;;;;;;;;;5049835;28;20480;-76
2022/07/13 13:05:02;;;;;;;0.50;0.50;;;;;;;;;;5050355;28;20856;-78
2022/07/13 13:07:30;;;;;;;1.07;0.97;;;;;;;;;;5050444;28;20828;-77
2022/07/13 13:09:57;;;;;;;0.60;0.60;;;;;;;;;;5037533;28;20465;-77
2022/07/13 13:12:25;;;;;;;0.83;0.70;;;;;;;;;;5030720;28;20470;-76
2022/07/13 13:14:52;;;;;;;1.27;1.17;;;;;;;;;;5031015;28;20446;-77
2022/07/13 13:17:19;;;;;;;1.00;0.90;;;;;;;;;;5030813;28;20481;-77
2022/07/13 13:19:46;;;;;;;0.80;0.80;;;;;;;;;;5030737;28;20703;-77
2022/07/13 13:22:13;;;;;;;1.03;0.50;;;;;;;;;;5030735;28;20462;-77
2022/07/13 13:24:41;;;;;;;1.73;0.60;;;;;;;;;;5030383;28;20818;-76
2022/07/13 13:27:08;;;;;;;0.80;0.67;;;;;;;;;;5031447;28;20461;-77
2022/07/13 13:32:22;;;;;;;0.50;0.43;;;;;;;;;;5034535;28;20585;-76
2022/07/13 13:34:49;;;;;;;0.57;0.57;;;;;;;;;;5034505;28;20446;-76
2022/07/13 13:37:16;;;;;;;3.70;0.80;;;;;;;;;;5034161;28;20490;-77
2022/07/13 13:39:43;;;;;;;1.17;0.60;;;;;;;;;;5034340;28;20484;-76
2022/07/13 13:42:10;;;;;;;0.70;0.70;;;;;;;;;;5034213;28;20883;-76
2022/07/13 13:44:38;;;;;;;0.53;0.50;;;;;;;;;;5035219;28;20531;-76
2022/07/13 13:47:05;;;;;;;1.37;0.60;;;;;;;;;;5035131;28;20876;-77
2022/07/13 13:49:32;;;;;;;0.77;0.50;;;;;;;;;;5034579;28;20500;-76
2022/07/13 13:51:59;;;;;;;2.87;0.80;;;;;;;;;;5034723;28;20470;-77
2022/07/13 13:54:26;;;;;;;0.53;0.50;;;;;;;;;;5035403;28;20454;-77
2022/07/13 13:56:53;;;;;;;0.83;0.80;;;;;;;;;;5035300;28;20523;-78
2022/07/13 13:59:20;;;;;;;0.80;0.80;;;;;;;;;;5048091;28;20453;-77
2022/07/13 14:01:49;;;;;;;3.50;0.43;;;;;;;;;;5055055;28;20858;-79
2022/07/13 14:04:16;;;;;;;0.50;0.50;;;;;;;;;;5053708;28;20452;-77
2022/07/13 14:06:44;;;;;;;1.30;0.60;;;;;;;;;;5051903;28;20938;-76
2022/07/13 14:09:11;;;;;;;0.70;0.70;;;;;;;;;;5050554;28;20485;-78
2022/07/13 14:11:39;;;;;;;0.60;0.60;;;;;;;;;;5059839;28;20472;-76
2022/07/13 14:14:06;;;;;;;0.80;0.80;;;;;;;;;;5065262;28;20461;-76
2022/07/13 14:16:33;;;;;;;2.47;0.60;;;;;;;;;;5057669;28;20476;-76
2022/07/13 14:19:01;;;;;;;0.60;0.50;;;;;;;;;;5054998;28;20517;-77
2022/07/13 14:21:28;;;;;;;0.77;0.60;;;;;;;;;;5055521;28;20495;-77
2022/07/13 14:23:55;;;;;;;2.00;1.90;;;;;;;;;;5057687;28;20457;-78
2022/07/13 14:26:22;;;;;;;2.00;1.00;;;;;;;;;;5057185;28;20446;-75
2022/07/13 14:28:49;;;;;;;1.70;0.60;;;;;;;;;;5051080;28;20449;-75
2022/07/13 14:31:16;;;;;;;0.70;0.60;;;;;;;;;;5033021;28;20515;-76
2022/07/13 14:33:43;;;;;;;0.90;0.90;;;;;;;;;;5052455;28;20461;-75
2022/07/13 14:36:12;;;;;;;0.83;0.70;;;;;;;;;;5053817;28;20543;-78
2022/07/13 14:38:39;;;;;;;1.63;0.73;;;;;;;;;;5053510;28;20522;-77
2022/07/13 14:41:06;;;;;;;1.43;0.83;;;;;;;;;;5053758;28;20442;-76
2022/07/13 14:43:33;;;;;;;1.60;0.70;;;;;;;;;;5053120;28;20531;-76
2022/07/13 14:46:00;;;;;;;1.00;0.67;;;;;;;;;;5048952;28;20541;-75
2022/07/13 14:48:27;;;;;;;2.30;0.60;;;;;;;;;;5043574;28;20462;-77
2022/07/13 14:50:54;;;;;;;0.93;0.70;;;;;;;;;;5041818;28;20833;-77
2022/07/13 14:53:22;;;;;;;2.93;0.50;;;;;;;;;;5041338;28;20465;-76
2022/07/13 14:55:49;;;;;;;1.20;1.10;;;;;;;;;;5047108;28;20465;-76
2022/07/13 14:58:16;;;;;;;0.90;0.90;;;;;;;;;;5051429;28;20442;-75
2022/07/13 15:00:43;;;;;;;0.70;0.60;;;;;;;;;;5056351;28;21171;-76
2022/07/13 15:03:10;;;;;;;1.40;1.30;;;;;;;;;;5060860;28;20991;-76
2022/07/13 15:05:38;;;;;;;0.83;0.83;;;;;;;;;;5055107;28;20449;-77